Time;durP1;ratioP1;P1;durP2;ratioP2;P2;SDS_P1;SDS_P2;PMS_P1;PMS_P2;Temp;Humidity;BMP_temperature;BMP_pressure;BME280_temperature;BME280_humidity;BME280_pressure;Samples;Min_cycle;Max_cycle;Signal;HPM_P1;HPM_P2
2023/07/31 00:00:29;;;;;;;8.40;4.00;;;;;;;;;;5050556;28;20059;-79
2023/07/31 00:02:55;;;;;;;7.07;4.15;;;;;;;;;;5018112;28;20052;-79
2023/07/31 00:05:22;;;;;;;6.70;4.30;;;;;;;;;;5024701;28;20116;-76
2023/07/31 00:07:48;;;;;;;7.95;4.10;;;;;;;;;;5043546;28;20088;-77
2023/07/31 00:10:14;;;;;;;7.10;4.45;;;;;;;;;;5038744;28;20147;-76
2023/07/31 00:12:41;;;;;;;7.63;4.65;;;;;;;;;;5046338;28;20099;-76
2023/07/31 00:15:07;;;;;;;7.00;4.30;;;;;;;;;;5045957;28;20042;-76
2023/07/31 00:17:33;;;;;;;9.57;4.60;;;;;;;;;;5038466;28;20037;-76
2023/07/31 00:19:59;;;;;;;6.80;4.25;;;;;;;;;;5015820;28;20128;-76
2023/07/31 00:22:26;;;;;;;10.20;4.57;;;;;;;;;;5033933;28;20042;-76
2023/07/31 00:24:52;;;;;;;11.88;4.40;;;;;;;;;;5034690;28;20084;-77
2023/07/31 00:27:18;;;;;;;10.63;3.90;;;;;;;;;;5038471;28;20045;-76
2023/07/31 00:29:44;;;;;;;8.77;3.45;;;;;;;;;;5021610;28;20133;-77
2023/07/31 00:32:10;;;;;;;10.90;3.90;;;;;;;;;;5037308;28;20041;-76
2023/07/31 00:34:36;;;;;;;6.07;3.72;;;;;;;;;;5031922;28;20240;-77
2023/07/31 00:37:02;;;;;;;6.05;3.90;;;;;;;;;;5036618;28;20050;-76
2023/07/31 00:39:28;;;;;;;3.72;2.97;;;;;;;;;;5031208;28;20120;-78
2023/07/31 00:41:54;;;;;;;4.43;3.40;;;;;;;;;;5034313;28;20044;-76
2023/07/31 00:44:20;;;;;;;5.10;3.10;;;;;;;;;;5031104;28;20033;-76
2023/07/31 00:46:46;;;;;;;3.92;2.70;;;;;;;;;;5034008;28;20128;-75
2023/07/31 00:49:12;;;;;;;4.72;2.83;;;;;;;;;;5037684;28;20048;-76
2023/07/31 00:51:38;;;;;;;3.60;2.67;;;;;;;;;;5036848;28;20491;-74
2023/07/31 00:54:05;;;;;;;5.05;2.58;;;;;;;;;;5024142;28;20076;-75
2023/07/31 00:56:31;;;;;;;5.07;2.53;;;;;;;;;;5028238;28;20411;-74
2023/07/31 00:58:57;;;;;;;3.78;2.20;;;;;;;;;;5021317;28;20094;-75
2023/07/31 01:01:23;;;;;;;4.25;2.30;;;;;;;;;;5023180;28;20041;-75
2023/07/31 01:03:53;;;;;;;3.33;1.75;;;;;;;;;;5024516;28;20480;-75
2023/07/31 01:06:28;;;;;;;3.33;2.28;;;;;;;;;;5046411;28;20056;-74
2023/07/31 01:09:01;;;;;;;3.20;2.20;;;;;;;;;;5032780;28;20033;-75
2023/07/31 01:11:39;;;;;;;2.88;1.52;;;;;;;;;;5025997;28;20052;-76
2023/07/31 01:14:05;;;;;;;3.22;1.88;;;;;;;;;;5027055;28;20051;-74
2023/07/31 01:16:31;;;;;;;5.22;1.70;;;;;;;;;;5024714;28;20522;-74
2023/07/31 01:18:57;;;;;;;3.72;1.90;;;;;;;;;;5024579;28;20045;-74
2023/07/31 01:21:44;;;;;;;2.78;1.90;;;;;;;;;;5023108;28;20092;-75
2023/07/31 01:24:10;;;;;;;;;;;;;;;;;;4977355;28;20060;-75
2023/07/31 01:26:38;;;;;;;2.53;1.60;;;;;;;;;;5023451;28;19921;-74
2023/07/31 01:29:04;;;;;;;4.28;1.70;;;;;;;;;;5021869;28;20479;-75
2023/07/31 01:31:31;;;;;;;2.38;1.50;;;;;;;;;;5015298;28;20505;-74
2023/07/31 01:34:00;;;;;;;3.40;1.70;;;;;;;;;;5018407;28;20045;-75
2023/07/31 01:36:26;;;;;;;2.58;1.48;;;;;;;;;;5026317;28;20045;-75
2023/07/31 01:38:52;;;;;;;3.53;1.58;;;;;;;;;;5003004;28;20037;-75
2023/07/31 01:41:19;;;;;;;2.83;1.42;;;;;;;;;;5024078;28;20085;-75
2023/07/31 01:43:48;;;;;;;2.25;1.20;;;;;;;;;;4984894;28;20041;-74
2023/07/31 01:46:14;;;;;;;2.78;1.30;;;;;;;;;;5037064;28;20124;-76
2023/07/31 01:48:40;;;;;;;3.50;1.10;;;;;;;;;;5032421;28;20083;-76
2023/07/31 01:51:06;;;;;;;3.40;1.10;;;;;;;;;;5018010;28;20503;-76
2023/07/31 01:53:32;;;;;;;3.50;1.20;;;;;;;;;;5026534;28;20056;-76
2023/07/31 01:55:58;;;;;;;3.45;1.10;;;;;;;;;;5054215;28;20136;-77
2023/07/31 01:58:24;;;;;;;3.05;1.00;;;;;;;;;;5040763;28;20495;-79
2023/07/31 02:00:51;;;;;;;3.13;1.00;;;;;;;;;;5049914;28;20376;-79
2023/07/31 02:03:17;;;;;;;1.95;0.85;;;;;;;;;;5043598;28;20091;-79
2023/07/31 02:05:50;;;;;;;2.05;0.80;;;;;;;;;;5052642;28;20049;-79
2023/07/31 02:08:16;;;;;;;2.72;0.98;;;;;;;;;;5050344;28;20033;-77
2023/07/31 02:10:43;;;;;;;2.25;1.10;;;;;;;;;;5034536;28;20033;-78
2023/07/31 02:13:09;;;;;;;2.05;0.90;;;;;;;;;;5046369;28;20588;-79
2023/07/31 02:15:35;;;;;;;1.92;1.00;;;;;;;;;;5041937;28;20122;-79
2023/07/31 02:18:01;;;;;;;2.88;1.10;;;;;;;;;;5048519;28;20067;-79
2023/07/31 02:20:27;;;;;;;3.67;1.17;;;;;;;;;;5031989;28;20029;-78
2023/07/31 02:22:53;;;;;;;1.95;1.10;;;;;;;;;;5036315;28;20042;-78
2023/07/31 02:25:19;;;;;;;2.83;1.00;;;;;;;;;;5051162;28;20039;-78
2023/07/31 02:27:45;;;;;;;2.72;1.10;;;;;;;;;;5036833;28;20044;-78
2023/07/31 02:30:11;;;;;;;3.30;1.17;;;;;;;;;;5050630;28;20041;-77
2023/07/31 02:32:38;;;;;;;2.92;1.20;;;;;;;;;;5033857;28;20041;-77
2023/07/31 02:35:04;;;;;;;4.25;1.15;;;;;;;;;;5034938;28;20045;-78
2023/07/31 02:37:30;;;;;;;3.80;1.60;;;;;;;;;;5031514;28;20041;-78
2023/07/31 02:39:56;;;;;;;4.18;1.45;;;;;;;;;;5025346;28;20049;-77
2023/07/31 02:42:22;;;;;;;6.18;1.58;;;;;;;;;;5041172;28;20126;-75
2023/07/31 02:44:49;;;;;;;4.43;1.60;;;;;;;;;;5037347;28;20049;-75
2023/07/31 02:47:15;;;;;;;6.72;2.10;;;;;;;;;;5044993;28;20399;-75
2023/07/31 02:49:41;;;;;;;6.15;1.98;;;;;;;;;;5033313;28;20497;-75
2023/07/31 02:52:07;;;;;;;4.10;1.75;;;;;;;;;;5045143;28;20098;-79
2023/07/31 02:54:33;;;;;;;2.35;1.25;;;;;;;;;;5003050;28;20045;-79
2023/07/31 02:56:59;;;;;;;2.45;1.13;;;;;;;;;;5028085;28;20037;-78
2023/07/31 02:59:25;;;;;;;2.22;1.20;;;;;;;;;;5017389;28;20041;-78
2023/07/31 03:01:51;;;;;;;2.90;1.17;;;;;;;;;;5032938;28;20072;-78
2023/07/31 03:04:17;;;;;;;3.83;1.60;;;;;;;;;;5035442;28;20131;-78
2023/07/31 03:06:43;;;;;;;5.97;1.30;;;;;;;;;;5012818;28;20095;-79
2023/07/31 03:09:09;;;;;;;3.72;1.40;;;;;;;;;;5019909;28;20559;-79
2023/07/31 03:11:35;;;;;;;5.25;1.30;;;;;;;;;;5030895;28;20037;-79
2023/07/31 03:14:01;;;;;;;4.50;1.30;;;;;;;;;;5022109;28;20041;-79
2023/07/31 03:16:27;;;;;;;3.38;1.10;;;;;;;;;;5028729;28;20037;-80
2023/07/31 03:18:54;;;;;;;2.13;1.00;;;;;;;;;;5012173;28;20041;-77
2023/07/31 03:21:20;;;;;;;2.78;1.17;;;;;;;;;;5030299;28;20045;-78
2023/07/31 03:23:46;;;;;;;3.28;1.02;;;;;;;;;;5035695;28;20116;-78
2023/07/31 03:26:13;;;;;;;2.60;1.10;;;;;;;;;;5022071;28;20096;-76
2023/07/31 03:28:39;;;;;;;3.08;1.10;;;;;;;;;;5048112;28;20041;-77
2023/07/31 03:31:05;;;;;;;3.20;1.20;;;;;;;;;;5035686;28;20041;-78
2023/07/31 03:33:31;;;;;;;4.88;1.30;;;;;;;;;;5025523;28;20098;-78
2023/07/31 03:35:57;;;;;;;5.07;1.33;;;;;;;;;;5028817;28;20032;-78
2023/07/31 03:38:23;;;;;;;4.07;1.20;;;;;;;;;;5005709;28;20033;-79
2023/07/31 03:40:49;;;;;;;5.82;1.42;;;;;;;;;;5036475;28;20037;-78
2023/07/31 03:43:16;;;;;;;4.60;1.70;;;;;;;;;;4999733;28;20167;-78
2023/07/31 03:45:42;;;;;;;9.52;2.88;;;;;;;;;;5030447;28;20041;-78
2023/07/31 03:48:08;;;;;;;9.40;3.15;;;;;;;;;;5025878;28;20079;-80
2023/07/31 03:50:34;;;;;;;11.68;4.78;;;;;;;;;;5035964;28;20040;-79
2023/07/31 03:53:00;;;;;;;13.80;4.63;;;;;;;;;;5023827;28;20461;-78
2023/07/31 03:55:26;;;;;;;15.55;5.35;;;;;;;;;;5050402;28;20049;-80
2023/07/31 03:57:52;;;;;;;17.58;5.75;;;;;;;;;;5052551;28;20051;-79
2023/07/31 04:00:19;;;;;;;14.57;5.95;;;;;;;;;;5051104;28;20044;-81
2023/07/31 04:02:45;;;;;;;16.85;6.50;;;;;;;;;;5046406;28;20040;-75
2023/07/31 04:05:11;;;;;;;21.38;6.88;;;;;;;;;;5046779;28;20381;-77
2023/07/31 04:07:37;;;;;;;18.48;6.78;;;;;;;;;;5043669;28;20049;-77
2023/07/31 04:10:04;;;;;;;21.38;7.10;;;;;;;;;;5046559;28;20029;-77
2023/07/31 04:12:30;;;;;;;23.02;6.47;;;;;;;;;;5035322;28;20048;-77
2023/07/31 04:14:56;;;;;;;27.48;7.43;;;;;;;;;;5048497;28;20629;-80
2023/07/31 04:17:22;;;;;;;21.23;6.60;;;;;;;;;;5045132;28;20075;-80
2023/07/31 04:19:48;;;;;;;27.02;7.53;;;;;;;;;;5029446;28;20123;-83
2023/07/31 04:22:14;;;;;;;25.77;6.95;;;;;;;;;;5025812;28;20044;-78
2023/07/31 04:24:40;;;;;;;24.92;7.32;;;;;;;;;;5041856;28;20114;-79
2023/07/31 04:27:06;;;;;;;27.85;8.07;;;;;;;;;;5027354;28;20515;-78
2023/07/31 04:29:32;;;;;;;26.42;7.68;;;;;;;;;;5046928;28;20510;-84
2023/07/31 04:31:58;;;;;;;24.85;7.22;;;;;;;;;;5051631;28;20068;-79
2023/07/31 04:34:24;;;;;;;27.10;7.20;;;;;;;;;;5051706;28;20506;-78
2023/07/31 04:36:50;;;;;;;24.25;7.18;;;;;;;;;;5045934;28;20045;-77
2023/07/31 04:39:17;;;;;;;23.83;7.25;;;;;;;;;;5032299;28;20080;-76
2023/07/31 04:41:43;;;;;;;27.67;6.78;;;;;;;;;;5021840;28;20042;-78
2023/07/31 04:44:11;;;;;;;25.30;6.72;;;;;;;;;;5029779;28;20032;-75
2023/07/31 04:46:37;;;;;;;23.25;7.53;;;;;;;;;;5043503;28;20124;-75
2023/07/31 04:49:03;;;;;;;24.20;7.15;;;;;;;;;;5031152;28;20037;-74
2023/07/31 04:51:29;;;;;;;26.00;6.85;;;;;;;;;;5038223;28;20107;-74
2023/07/31 04:53:56;;;;;;;23.33;7.25;;;;;;;;;;5044303;28;20124;-74
2023/07/31 04:56:22;;;;;;;27.83;7.10;;;;;;;;;;5031503;28;20451;-74
2023/07/31 04:58:48;;;;;;;27.45;8.00;;;;;;;;;;5040852;28;20380;-73
2023/07/31 05:01:14;;;;;;;30.23;7.05;;;;;;;;;;5050756;28;20040;-74
2023/07/31 05:03:40;;;;;;;23.90;7.10;;;;;;;;;;5031542;28;20037;-73
2023/07/31 05:06:07;;;;;;;25.33;7.18;;;;;;;;;;5034815;28;20524;-74
2023/07/31 05:08:33;;;;;;;23.48;7.13;;;;;;;;;;5021280;28;20041;-74
2023/07/31 05:10:59;;;;;;;23.48;7.40;;;;;;;;;;5044515;28;20075;-75
2023/07/31 05:13:25;;;;;;;24.88;7.25;;;;;;;;;;5002601;28;20064;-75
2023/07/31 05:15:51;;;;;;;24.27;6.50;;;;;;;;;;5034605;28;20038;-76
2023/07/31 05:18:17;;;;;;;21.05;6.05;;;;;;;;;;5015804;28;20037;-79
2023/07/31 05:20:43;;;;;;;23.05;6.97;;;;;;;;;;5043294;28;20549;-77
2023/07/31 05:23:10;;;;;;;23.23;6.18;;;;;;;;;;5048062;28;20047;-76
2023/07/31 05:25:36;;;;;;;26.92;7.18;;;;;;;;;;5040288;28;20041;-77
2023/07/31 05:28:02;;;;;;;19.67;6.20;;;;;;;;;;5044110;28;20099;-75
2023/07/31 05:30:30;;;;;;;25.58;6.75;;;;;;;;;;5025469;28;20479;-77
2023/07/31 05:32:56;;;;;;;21.92;6.28;;;;;;;;;;5017788;28;20049;-74
2023/07/31 05:35:23;;;;;;;20.95;5.72;;;;;;;;;;5033893;28;20051;-74
2023/07/31 05:37:49;;;;;;;22.05;6.93;;;;;;;;;;5037871;28;20045;-74
2023/07/31 05:40:15;;;;;;;23.55;6.68;;;;;;;;;;5065413;28;20041;-74
2023/07/31 05:42:41;;;;;;;20.02;6.50;;;;;;;;;;5033771;28;20086;-75
2023/07/31 05:45:07;;;;;;;22.63;6.00;;;;;;;;;;5037250;28;20046;-75
2023/07/31 05:47:34;;;;;;;22.42;6.20;;;;;;;;;;5025019;28;20037;-75
2023/07/31 05:50:00;;;;;;;22.92;6.18;;;;;;;;;;5049011;28;20045;-74
2023/07/31 05:52:26;;;;;;;21.80;6.07;;;;;;;;;;5035817;28;20044;-75
2023/07/31 05:54:52;;;;;;;19.52;5.55;;;;;;;;;;5050129;28;20102;-74
2023/07/31 05:57:18;;;;;;;20.25;5.60;;;;;;;;;;5031714;28;20128;-75
2023/07/31 05:59:44;;;;;;;20.00;5.53;;;;;;;;;;5038153;28;20036;-75
2023/07/31 06:02:10;;;;;;;25.08;6.28;;;;;;;;;;5036700;28;20049;-75
2023/07/31 06:04:36;;;;;;;17.60;6.20;;;;;;;;;;5035029;28;20529;-74
2023/07/31 06:07:03;;;;;;;20.50;6.28;;;;;;;;;;5024467;28;20037;-74
2023/07/31 06:09:29;;;;;;;17.48;6.22;;;;;;;;;;5033179;28;20118;-74
2023/07/31 06:11:55;;;;;;;19.63;5.57;;;;;;;;;;5040403;28;20038;-75
2023/07/31 06:14:21;;;;;;;20.58;6.10;;;;;;;;;;5047887;28;20076;-75
2023/07/31 06:16:47;;;;;;;20.85;6.00;;;;;;;;;;5043526;28;20041;-76
2023/07/31 06:19:13;;;;;;;19.27;6.00;;;;;;;;;;5032227;28;20128;-75
2023/07/31 06:21:41;;;;;;;22.10;6.80;;;;;;;;;;5044468;28;20450;-75
2023/07/31 06:24:08;;;;;;;24.13;6.65;;;;;;;;;;5042628;28;20483;-75
2023/07/31 06:26:34;;;;;;;22.02;6.63;;;;;;;;;;5042316;28;20120;-75
2023/07/31 06:29:00;;;;;;;20.40;6.40;;;;;;;;;;5049487;28;20442;-75
2023/07/31 06:31:26;;;;;;;19.38;6.03;;;;;;;;;;5039459;28;20049;-77
2023/07/31 06:33:53;;;;;;;23.63;6.45;;;;;;;;;;5028417;28;20076;-76
2023/07/31 06:36:19;;;;;;;20.20;6.07;;;;;;;;;;5036660;28;20044;-78
2023/07/31 06:38:45;;;;;;;24.63;6.50;;;;;;;;;;5049293;28;20121;-76
2023/07/31 06:41:11;;;;;;;17.67;5.90;;;;;;;;;;5037014;28;20086;-78
2023/07/31 06:43:37;;;;;;;19.13;5.63;;;;;;;;;;5030485;28;20580;-77
2023/07/31 06:46:07;;;;;;;16.55;5.57;;;;;;;;;;5045318;28;20415;-79
2023/07/31 06:48:37;;;;;;;16.60;5.68;;;;;;;;;;5044002;28;20091;-78
2023/07/31 06:51:03;;;;;;;13.77;4.70;;;;;;;;;;5039927;28;20116;-77
2023/07/31 06:53:29;;;;;;;10.07;4.35;;;;;;;;;;5029150;28;20565;-77
2023/07/31 06:55:55;;;;;;;11.00;3.85;;;;;;;;;;5051406;28;20041;-77
2023/07/31 06:58:21;;;;;;;9.77;4.22;;;;;;;;;;5043526;28;20399;-76
2023/07/31 07:00:49;;;;;;;10.38;3.92;;;;;;;;;;5049357;28;20145;-76
2023/07/31 07:03:15;;;;;;;8.40;3.70;;;;;;;;;;5053361;28;20048;-76
2023/07/31 07:05:41;;;;;;;6.18;2.95;;;;;;;;;;5044954;28;20586;-78
2023/07/31 07:08:08;;;;;;;8.40;3.70;;;;;;;;;;5033165;28;20407;-76
2023/07/31 07:10:34;;;;;;;8.38;3.53;;;;;;;;;;5028857;28;20037;-76
2023/07/31 07:13:00;;;;;;;6.35;2.83;;;;;;;;;;5031249;28;20062;-77
2023/07/31 07:15:26;;;;;;;4.88;2.40;;;;;;;;;;5050073;28;20257;-77
2023/07/31 07:17:52;;;;;;;5.10;2.38;;;;;;;;;;5049914;28;20427;-75
2023/07/31 07:20:19;;;;;;;5.70;2.20;;;;;;;;;;5041448;28;20045;-78
2023/07/31 07:22:46;;;;;;;4.90;2.30;;;;;;;;;;5035333;28;20052;-76
2023/07/31 07:25:12;;;;;;;4.10;2.10;;;;;;;;;;5052602;28;20068;-74
2023/07/31 07:27:38;;;;;;;4.28;1.90;;;;;;;;;;5036061;28;20044;-76
2023/07/31 07:30:04;;;;;;;4.05;1.98;;;;;;;;;;5047082;28;20037;-78
2023/07/31 07:32:31;;;;;;;3.70;1.90;;;;;;;;;;5052686;28;20398;-78
2023/07/31 07:34:57;;;;;;;4.22;1.77;;;;;;;;;;5029240;28;20045;-77
2023/07/31 07:37:23;;;;;;;3.30;1.65;;;;;;;;;;5044773;28;20068;-77
2023/07/31 07:39:49;;;;;;;4.30;1.90;;;;;;;;;;5044488;28;20042;-77
2023/07/31 07:42:15;;;;;;;3.90;1.80;;;;;;;;;;5051963;28;20491;-77
2023/07/31 07:44:41;;;;;;;3.70;1.75;;;;;;;;;;5033846;28;20471;-76
2023/07/31 07:47:07;;;;;;;3.15;1.65;;;;;;;;;;5038325;28;20046;-78
2023/07/31 07:49:34;;;;;;;3.17;1.70;;;;;;;;;;5051930;28;20510;-78
2023/07/31 07:52:00;;;;;;;4.75;1.90;;;;;;;;;;5051936;28;20048;-76
2023/07/31 07:54:27;;;;;;;3.67;1.90;;;;;;;;;;5021124;28;20084;-77
2023/07/31 07:56:53;;;;;;;3.00;1.60;;;;;;;;;;5012900;28;20045;-77
2023/07/31 07:59:19;;;;;;;4.00;1.88;;;;;;;;;;5005361;28;20549;-77
2023/07/31 08:01:45;;;;;;;2.72;1.48;;;;;;;;;;5027498;28;20040;-75
2023/07/31 08:04:11;;;;;;;3.63;1.50;;;;;;;;;;5029168;28;20044;-75
2023/07/31 08:06:37;;;;;;;3.13;1.60;;;;;;;;;;5017363;28;20511;-74
2023/07/31 08:09:06;;;;;;;2.65;1.33;;;;;;;;;;5022655;28;20086;-80
2023/07/31 08:11:32;;;;;;;3.40;1.50;;;;;;;;;;5032125;28;20041;-82
2023/07/31 08:13:58;;;;;;;3.13;1.30;;;;;;;;;;5015426;28;20109;-84
2023/07/31 08:16:24;;;;;;;3.75;1.30;;;;;;;;;;5032503;28;20045;-79
2023/07/31 08:18:50;;;;;;;2.83;1.50;;;;;;;;;;5007823;28;20532;-79
2023/07/31 08:21:16;;;;;;;2.67;1.38;;;;;;;;;;5021602;28;20398;-76
2023/07/31 08:23:42;;;;;;;2.45;1.40;;;;;;;;;;5034686;28;20056;-77
2023/07/31 08:26:09;;;;;;;4.30;1.48;;;;;;;;;;5032979;28;20048;-73
2023/07/31 08:28:36;;;;;;;2.10;1.20;;;;;;;;;;5019306;28;20041;-79
2023/07/31 08:31:02;;;;;;;3.00;1.20;;;;;;;;;;5026568;28;20045;-80
2023/07/31 08:33:28;;;;;;;3.17;1.50;;;;;;;;;;5016061;28;20029;-74
2023/07/31 08:35:55;;;;;;;3.40;1.42;;;;;;;;;;5022887;28;20037;-80
2023/07/31 08:38:21;;;;;;;2.92;1.30;;;;;;;;;;5031275;28;20041;-81
2023/07/31 08:40:47;;;;;;;2.67;1.20;;;;;;;;;;5030620;28;20043;-75
2023/07/31 08:43:13;;;;;;;2.38;1.27;;;;;;;;;;5033780;28;20032;-75
2023/07/31 08:45:42;;;;;;;2.17;1.20;;;;;;;;;;5032576;28;20045;-78
2023/07/31 08:48:08;;;;;;;1.27;0.88;;;;;;;;;;5031698;28;20047;-76
2023/07/31 08:50:34;;;;;;;3.30;1.30;;;;;;;;;;5032531;28;20119;-77
2023/07/31 08:53:00;;;;;;;1.92;0.88;;;;;;;;;;5025555;28;20049;-76
2023/07/31 08:55:26;;;;;;;2.15;1.00;;;;;;;;;;5045110;28;20060;-77
2023/07/31 08:57:53;;;;;;;1.63;0.88;;;;;;;;;;5040326;28;20045;-76
2023/07/31 09:00:24;;;;;;;1.67;0.80;;;;;;;;;;5043096;28;20048;-78
2023/07/31 09:02:54;;;;;;;1.30;0.70;;;;;;;;;;5045293;28;20099;-77
2023/07/31 09:05:21;;;;;;;1.50;0.70;;;;;;;;;;5041928;28;20041;-75
2023/07/31 09:07:48;;;;;;;1.65;0.68;;;;;;;;;;5019538;28;20131;-76
2023/07/31 09:10:14;;;;;;;1.13;0.50;;;;;;;;;;5039915;28;20063;-76
2023/07/31 09:12:40;;;;;;;2.65;0.63;;;;;;;;;;5047058;28;20036;-77
2023/07/31 09:15:06;;;;;;;1.35;0.60;;;;;;;;;;5022163;28;20512;-77
2023/07/31 09:17:36;;;;;;;1.35;0.60;;;;;;;;;;5040497;28;20056;-78
2023/07/31 09:20:21;;;;;;;1.63;0.60;;;;;;;;;;5051583;28;20094;-76
2023/07/31 09:22:49;;;;;;;0.80;0.60;;;;;;;;;;5046727;28;20376;-77
2023/07/31 09:25:18;;;;;;;1.17;0.50;;;;;;;;;;5048031;28;20041;-77
2023/07/31 09:27:52;;;;;;;1.73;0.70;;;;;;;;;;5017003;28;20053;-78
2023/07/31 09:30:18;;;;;;;0.95;0.60;;;;;;;;;;5033807;28;20040;-78
2023/07/31 09:32:45;;;;;;;1.40;0.80;;;;;;;;;;5021928;28;20124;-78
2023/07/31 09:35:29;;;;;;;1.60;0.90;;;;;;;;;;5021203;28;20041;-77
2023/07/31 09:37:59;;;;;;;2.03;0.80;;;;;;;;;;5038989;28;20042;-79
2023/07/31 09:40:35;;;;;;;1.48;0.70;;;;;;;;;;5036264;28;20063;-76
2023/07/31 09:43:04;;;;;;;1.33;0.70;;;;;;;;;;5049599;28;20045;-79
2023/07/31 09:45:30;;;;;;;2.58;0.80;;;;;;;;;;5037884;28;20128;-78
2023/07/31 09:47:57;;;;;;;1.52;0.70;;;;;;;;;;5031758;28;20135;-76
2023/07/31 09:50:24;;;;;;;1.83;0.90;;;;;;;;;;5050550;28;20047;-78
2023/07/31 09:52:51;;;;;;;2.25;1.02;;;;;;;;;;5033318;28;20052;-75
2023/07/31 09:55:18;;;;;;;1.48;0.52;;;;;;;;;;5024839;28;20132;-76
2023/07/31 09:57:48;;;;;;;1.10;0.60;;;;;;;;;;5035819;28;20048;-75
2023/07/31 10:00:15;;;;;;;0.55;0.30;;;;;;;;;;5025762;28;20048;-77
2023/07/31 10:02:41;;;;;;;0.55;0.30;;;;;;;;;;5032570;28;20037;-78
2023/07/31 10:05:08;;;;;;;0.47;0.30;;;;;;;;;;5040762;28;20094;-75
2023/07/31 10:07:39;;;;;;;1.60;0.63;;;;;;;;;;5041012;28;20040;-76
2023/07/31 10:10:06;;;;;;;1.27;0.60;;;;;;;;;;5045012;28;20492;-75
2023/07/31 10:12:34;;;;;;;2.17;0.70;;;;;;;;;;5054042;28;20044;-77
2023/07/31 10:15:01;;;;;;;2.50;0.70;;;;;;;;;;5042219;28;20044;-75
2023/07/31 10:17:27;;;;;;;3.42;0.95;;;;;;;;;;5053973;28;20494;-75
2023/07/31 10:19:53;;;;;;;3.58;0.85;;;;;;;;;;5052282;28;20045;-74
2023/07/31 10:22:20;;;;;;;4.32;1.13;;;;;;;;;;5038130;28;20047;-74
2023/07/31 10:24:46;;;;;;;9.45;2.05;;;;;;;;;;5041020;28;20040;-75
2023/07/31 10:27:13;;;;;;;4.25;1.10;;;;;;;;;;5025408;28;20046;-74
2023/07/31 10:29:39;;;;;;;3.70;1.10;;;;;;;;;;5039340;28;20041;-74
2023/07/31 10:32:08;;;;;;;2.22;1.10;;;;;;;;;;5053667;28;20040;-74
2023/07/31 10:34:39;;;;;;;4.10;1.10;;;;;;;;;;5054907;28;20048;-74
2023/07/31 10:37:24;;;;;;;2.75;0.93;;;;;;;;;;5047571;28;20057;-74
2023/07/31 10:39:56;;;;;;;1.73;0.70;;;;;;;;;;5011694;28;20042;-74
2023/07/31 10:42:34;;;;;;;2.40;0.80;;;;;;;;;;5041093;28;20694;-75
2023/07/31 10:45:01;;;;;;;3.03;0.80;;;;;;;;;;5033913;28;20044;-74
2023/07/31 10:47:27;;;;;;;2.03;0.80;;;;;;;;;;5047891;28;20048;-74
2023/07/31 10:49:53;;;;;;;1.92;0.90;;;;;;;;;;5044058;28;20044;-73
2023/07/31 10:52:23;;;;;;;3.33;1.10;;;;;;;;;;5053004;28;20094;-74
2023/07/31 10:54:50;;;;;;;4.30;1.10;;;;;;;;;;5034144;28;20045;-74
2023/07/31 10:57:20;;;;;;;3.22;1.30;;;;;;;;;;5030355;28;20049;-73
2023/07/31 10:59:46;;;;;;;5.05;1.40;;;;;;;;;;5025550;28;20090;-74
2023/07/31 11:02:26;;;;;;;3.70;1.33;;;;;;;;;;5010463;28;20041;-73
2023/07/31 11:05:10;;;;;;;5.20;1.90;;;;;;;;;;5024355;28;20037;-74
2023/07/31 11:07:49;;;;;;;4.38;1.67;;;;;;;;;;5032402;28;20570;-73
2023/07/31 11:10:19;;;;;;;5.03;1.92;;;;;;;;;;5025137;28;20041;-76
2023/07/31 11:12:48;;;;;;;5.20;1.70;;;;;;;;;;5033092;28;20037;-75
2023/07/31 11:15:14;;;;;;;4.68;1.50;;;;;;;;;;5031903;28;20048;-76
2023/07/31 11:17:41;;;;;;;5.47;1.50;;;;;;;;;;5033659;28;20106;-73
2023/07/31 11:20:07;;;;;;;2.45;1.27;;;;;;;;;;5045996;28;20046;-73
2023/07/31 11:22:36;;;;;;;4.60;1.02;;;;;;;;;;5035045;28;20120;-72
2023/07/31 11:25:03;;;;;;;4.22;1.10;;;;;;;;;;5030800;28;20475;-72
2023/07/31 11:27:30;;;;;;;4.32;1.40;;;;;;;;;;5028148;28;20041;-73
2023/07/31 11:30:02;;;;;;;2.60;1.05;;;;;;;;;;5024456;28;20045;-72
2023/07/31 11:32:29;;;;;;;2.97;1.00;;;;;;;;;;5034193;28;20040;-72
2023/07/31 11:34:55;;;;;;;4.93;1.40;;;;;;;;;;5010021;28;20472;-74
2023/07/31 11:37:21;;;;;;;3.30;1.10;;;;;;;;;;5025111;28;20638;-74
2023/07/31 11:40:03;;;;;;;3.47;0.82;;;;;;;;;;5036005;28;20041;-73
2023/07/31 11:42:29;;;;;;;2.35;0.70;;;;;;;;;;5016373;28;20080;-75
2023/07/31 11:44:55;;;;;;;2.50;1.10;;;;;;;;;;5025912;28;20041;-77
2023/07/31 11:47:21;;;;;;;3.13;1.13;;;;;;;;;;5018501;28;20091;-76
2023/07/31 11:49:48;;;;;;;2.10;0.75;;;;;;;;;;5000938;28;20069;-77
2023/07/31 11:52:14;;;;;;;2.33;0.85;;;;;;;;;;5031599;28;20048;-77
2023/07/31 11:54:41;;;;;;;2.20;0.80;;;;;;;;;;5029576;28;20053;-79
2023/07/31 11:57:07;;;;;;;1.75;0.80;;;;;;;;;;5018768;28;20053;-78
2023/07/31 11:59:34;;;;;;;1.55;0.77;;;;;;;;;;5022132;28;20086;-81
2023/07/31 12:02:00;;;;;;;1.50;0.70;;;;;;;;;;5024340;28;20519;-75
2023/07/31 12:04:26;;;;;;;1.77;0.80;;;;;;;;;;5016353;28;20073;-79
2023/07/31 12:06:53;;;;;;;1.45;0.70;;;;;;;;;;5022365;28;20037;-77
2023/07/31 12:09:20;;;;;;;2.20;0.75;;;;;;;;;;5034882;28;20376;-82
2023/07/31 12:11:46;;;;;;;2.08;0.90;;;;;;;;;;5024203;28;20037;-83
2023/07/31 12:14:24;;;;;;;4.43;1.40;;;;;;;;;;5051886;28;20083;-78
2023/07/31 12:16:55;;;;;;;2.63;1.30;;;;;;;;;;5043910;28;20399;-78
2023/07/31 12:19:22;;;;;;;3.20;1.20;;;;;;;;;;5042759;28;20049;-77
2023/07/31 12:21:48;;;;;;;3.25;1.20;;;;;;;;;;5042728;28;20399;-80
2023/07/31 12:24:14;;;;;;;4.65;1.40;;;;;;;;;;5028361;28;20491;-82
2023/07/31 12:26:40;;;;;;;4.70;1.52;;;;;;;;;;5051371;28;20063;-76
2023/07/31 12:29:08;;;;;;;6.75;2.20;;;;;;;;;;5050024;28;20055;-74
2023/07/31 12:31:34;;;;;;;6.05;2.10;;;;;;;;;;5033111;28;20127;-79
2023/07/31 12:34:02;;;;;;;7.40;2.28;;;;;;;;;;5033896;28;20037;-76
2023/07/31 12:36:31;;;;;;;6.88;2.50;;;;;;;;;;5029953;28;20241;-78
2023/07/31 12:38:58;;;;;;;7.90;2.25;;;;;;;;;;5034391;28;20098;-77
2023/07/31 12:41:24;;;;;;;10.13;2.58;;;;;;;;;;5047283;28;20518;-82
2023/07/31 12:43:50;;;;;;;7.90;2.47;;;;;;;;;;5034410;28;20041;-80
2023/07/31 12:46:17;;;;;;;11.65;2.88;;;;;;;;;;5050347;28;20124;-76
2023/07/31 12:48:43;;;;;;;8.88;2.60;;;;;;;;;;5033560;28;20037;-82
2023/07/31 12:51:09;;;;;;;8.40;2.67;;;;;;;;;;5044126;28;20041;-76
2023/07/31 12:53:35;;;;;;;12.65;2.88;;;;;;;;;;5027221;28;20088;-83
2023/07/31 12:56:02;;;;;;;6.10;2.30;;;;;;;;;;5051418;28;20380;-80
2023/07/31 12:58:28;;;;;;;7.18;2.20;;;;;;;;;;5045833;28;20037;-79
2023/07/31 13:00:54;;;;;;;7.10;2.40;;;;;;;;;;5018338;28;20040;-77
2023/07/31 13:03:20;;;;;;;10.75;2.63;;;;;;;;;;5034457;28;20045;-71
2023/07/31 13:05:46;;;;;;;4.97;2.08;;;;;;;;;;5051311;28;20170;-76
2023/07/31 13:08:12;;;;;;;7.57;2.53;;;;;;;;;;5050851;28;20041;-86
2023/07/31 13:10:38;;;;;;;8.27;2.30;;;;;;;;;;5032486;28;20048;-77
2023/07/31 13:13:04;;;;;;;6.47;2.20;;;;;;;;;;5014622;28;20431;-75
2023/07/31 13:15:30;;;;;;;9.65;2.60;;;;;;;;;;5042169;28;20041;-80
2023/07/31 13:17:56;;;;;;;11.02;2.75;;;;;;;;;;5014983;28;20100;-78
2023/07/31 13:20:22;;;;;;;7.10;2.40;;;;;;;;;;5038877;28;20120;-78
2023/07/31 13:22:48;;;;;;;9.95;2.60;;;;;;;;;;5020481;28;20491;-74
2023/07/31 13:25:15;;;;;;;7.65;2.65;;;;;;;;;;5043665;28;20072;-76
2023/07/31 13:27:41;;;;;;;11.55;2.50;;;;;;;;;;5043880;28;20048;-74
2023/07/31 13:30:07;;;;;;;7.60;2.42;;;;;;;;;;5044753;28;20049;-74
2023/07/31 13:32:33;;;;;;;7.82;2.50;;;;;;;;;;5035530;28;20471;-75
2023/07/31 13:34:59;;;;;;;6.82;2.22;;;;;;;;;;5036880;28;20049;-79
2023/07/31 13:37:25;;;;;;;9.07;2.70;;;;;;;;;;5014075;28;20046;-72
2023/07/31 13:39:51;;;;;;;9.80;2.90;;;;;;;;;;5033281;28;20132;-72
2023/07/31 13:42:18;;;;;;;8.02;2.35;;;;;;;;;;5037634;28;20411;-72
2023/07/31 13:44:44;;;;;;;10.65;3.05;;;;;;;;;;5030813;28;20048;-72
2023/07/31 13:47:10;;;;;;;6.30;2.58;;;;;;;;;;5045648;28;20094;-73
2023/07/31 13:49:38;;;;;;;7.85;2.78;;;;;;;;;;5028865;28;20045;-73
2023/07/31 13:52:04;;;;;;;7.53;2.60;;;;;;;;;;5049370;28;20499;-72
2023/07/31 13:54:31;;;;;;;8.73;2.58;;;;;;;;;;5036244;28;20045;-72
2023/07/31 13:56:57;;;;;;;8.57;2.72;;;;;;;;;;5037277;28;20186;-72
2023/07/31 13:59:23;;;;;;;6.60;2.45;;;;;;;;;;5027369;28;20045;-74
2023/07/31 14:01:50;;;;;;;6.35;2.50;;;;;;;;;;5046198;28;20445;-73
2023/07/31 14:04:17;;;;;;;11.68;2.53;;;;;;;;;;5035502;28;20080;-73
2023/07/31 14:06:43;;;;;;;8.98;2.55;;;;;;;;;;5047618;28;20510;-73
2023/07/31 14:09:09;;;;;;;10.43;2.70;;;;;;;;;;5045028;28;20509;-72
2023/07/31 14:11:36;;;;;;;8.73;2.75;;;;;;;;;;5045948;28;20090;-73
2023/07/31 14:14:02;;;;;;;11.93;3.03;;;;;;;;;;5050260;28;20037;-70
2023/07/31 14:16:29;;;;;;;9.18;2.63;;;;;;;;;;5033082;28;20090;-73
2023/07/31 14:18:55;;;;;;;8.15;2.40;;;;;;;;;;5050389;28;20116;-73
2023/07/31 14:21:21;;;;;;;7.95;2.60;;;;;;;;;;5048611;28;20051;-73
2023/07/31 14:23:47;;;;;;;8.93;2.70;;;;;;;;;;5026821;28;20510;-72
2023/07/31 14:26:13;;;;;;;8.48;2.22;;;;;;;;;;5043287;28;20124;-72
2023/07/31 14:28:39;;;;;;;7.88;2.42;;;;;;;;;;5023647;28;20037;-72
2023/07/31 14:31:05;;;;;;;7.53;2.45;;;;;;;;;;5047785;28;20037;-73
2023/07/31 14:33:31;;;;;;;7.78;2.30;;;;;;;;;;5027285;28;20128;-76
2023/07/31 14:35:57;;;;;;;7.63;2.45;;;;;;;;;;5038863;28;20037;-78
2023/07/31 14:38:23;;;;;;;7.40;2.33;;;;;;;;;;5047786;28;20086;-82